sensor_id;sensor_type;location;lat;lon;timestamp;P1;durP1;ratioP1;P2;durP2;ratioP2
49548;SDS011;35450;44.518;7.466;2023-08-31T06:28:47;1.50;;;1.02;;
49548;SDS011;35450;44.518;7.466;2023-08-31T06:31:52;1.63;;;0.95;;
49548;SDS011;35450;44.518;7.466;2023-08-31T06:34:56;2.35;;;0.90;;
49548;SDS011;35450;44.518;7.466;2023-08-31T06:38:00;1.50;;;1.27;;
49548;SDS011;35450;44.518;7.466;2023-08-31T06:41:04;1.75;;;1.00;;
49548;SDS011;35450;44.518;7.466;2023-08-31T06:44:09;2.38;;;0.95;;
49548;SDS011;35450;44.518;7.466;2023-08-31T06:47:13;1.48;;;0.88;;
49548;SDS011;35450;44.518;7.466;2023-08-31T06:50:21;4.63;;;0.85;;
49548;SDS011;35450;44.518;7.466;2023-08-31T06:53:25;5.75;;;1.25;;
49548;SDS011;35450;44.518;7.466;2023-08-31T06:56:28;10.60;;;2.30;;
49548;SDS011;35450;44.518;7.466;2023-08-31T06:59:32;2.53;;;1.15;;
49548;SDS011;35450;44.518;7.466;2023-08-31T07:02:38;12.13;;;1.30;;
49548;SDS011;35450;44.518;7.466;2023-08-31T07:05:44;1.58;;;0.80;;
49548;SDS011;35450;44.518;7.466;2023-08-31T07:08:48;2.03;;;1.05;;
49548;SDS011;35450;44.518;7.466;2023-08-31T07:11:52;3.88;;;0.80;;
49548;SDS011;35450;44.518;7.466;2023-08-31T07:14:56;1.75;;;1.05;;
49548;SDS011;35450;44.518;7.466;2023-08-31T07:18:00;1.10;;;0.80;;
49548;SDS011;35450;44.518;7.466;2023-08-31T07:21:05;1.67;;;0.95;;
49548;SDS011;35450;44.518;7.466;2023-08-31T07:24:09;1.60;;;1.02;;
49548;SDS011;35450;44.518;7.466;2023-08-31T07:27:13;3.97;;;2.50;;
49548;SDS011;35450;44.518;7.466;2023-08-31T07:30:17;3.70;;;2.53;;
49548;SDS011;35450;44.518;7.466;2023-08-31T07:33:21;7.63;;;2.25;;
49548;SDS011;35450;44.518;7.466;2023-08-31T07:36:25;3.63;;;1.83;;
49548;SDS011;35450;44.518;7.466;2023-08-31T07:39:29;3.38;;;1.15;;
49548;SDS011;35450;44.518;7.466;2023-08-31T07:42:34;1.50;;;0.90;;
49548;SDS011;35450;44.518;7.466;2023-08-31T07:45:38;1.30;;;0.90;;
49548;SDS011;35450;44.518;7.466;2023-08-31T07:48:42;1.52;;;1.02;;
49548;SDS011;35450;44.518;7.466;2023-08-31T07:51:46;1.75;;;1.00;;
49548;SDS011;35450;44.518;7.466;2023-08-31T07:54:50;1.30;;;0.88;;
49548;SDS011;35450;44.518;7.466;2023-08-31T07:57:54;2.70;;;0.90;;
49548;SDS011;35450;44.518;7.466;2023-08-31T08:00:58;2.03;;;0.90;;
49548;SDS011;35450;44.518;7.466;2023-08-31T08:04:02;2.35;;;1.10;;
49548;SDS011;35450;44.518;7.466;2023-08-31T08:07:06;2.35;;;1.05;;
49548;SDS011;35450;44.518;7.466;2023-08-31T08:10:11;1.92;;;1.33;;
49548;SDS011;35450;44.518;7.466;2023-08-31T08:13:15;3.35;;;1.10;;
49548;SDS011;35450;44.518;7.466;2023-08-31T08:16:19;0.80;;;0.73;;
49548;SDS011;35450;44.518;7.466;2023-08-31T08:19:24;1.92;;;0.88;;
49548;SDS011;35450;44.518;7.466;2023-08-31T08:22:28;1.65;;;1.13;;
49548;SDS011;35450;44.518;7.466;2023-08-31T08:25:32;2.25;;;1.20;;
49548;SDS011;35450;44.518;7.466;2023-08-31T08:28:37;1.73;;;1.15;;
49548;SDS011;35450;44.518;7.466;2023-08-31T08:31:42;3.40;;;1.40;;
49548;SDS011;35450;44.518;7.466;2023-08-31T08:34:46;2.72;;;1.58;;
49548;SDS011;35450;44.518;7.466;2023-08-31T08:37:50;2.53;;;1.45;;
49548;SDS011;35450;44.518;7.466;2023-08-31T08:40:55;2.70;;;1.23;;
49548;SDS011;35450;44.518;7.466;2023-08-31T08:44:01;3.35;;;1.40;;
49548;SDS011;35450;44.518;7.466;2023-08-31T08:47:09;3.30;;;1.40;;
49548;SDS011;35450;44.518;7.466;2023-08-31T08:50:15;3.28;;;1.40;;
49548;SDS011;35450;44.518;7.466;2023-08-31T08:53:20;5.15;;;1.70;;
49548;SDS011;35450;44.518;7.466;2023-08-31T08:56:24;4.60;;;1.70;;
49548;SDS011;35450;44.518;7.466;2023-08-31T08:59:28;2.65;;;1.45;;
49548;SDS011;35450;44.518;7.466;2023-08-31T09:02:32;6.38;;;1.13;;
49548;SDS011;35450;44.518;7.466;2023-08-31T09:05:36;5.13;;;1.52;;
49548;SDS011;35450;44.518;7.466;2023-08-31T09:08:41;3.42;;;1.40;;
49548;SDS011;35450;44.518;7.466;2023-08-31T09:11:45;2.10;;;1.30;;
49548;SDS011;35450;44.518;7.466;2023-08-31T09:15:07;2.58;;;1.58;;
49548;SDS011;35450;44.518;7.466;2023-08-31T09:18:15;1.90;;;1.17;;
49548;SDS011;35450;44.518;7.466;2023-08-31T09:21:37;2.97;;;1.27;;
49548;SDS011;35450;44.518;7.466;2023-08-31T09:24:44;3.28;;;1.25;;
49548;SDS011;35450;44.518;7.466;2023-08-31T09:27:50;2.90;;;1.20;;
49548;SDS011;35450;44.518;7.466;2023-08-31T09:31:07;3.60;;;1.52;;
49548;SDS011;35450;44.518;7.466;2023-08-31T09:34:11;1.83;;;1.30;;
49548;SDS011;35450;44.518;7.466;2023-08-31T09:37:16;2.88;;;1.33;;
49548;SDS011;35450;44.518;7.466;2023-08-31T09:40:20;2.58;;;1.27;;
49548;SDS011;35450;44.518;7.466;2023-08-31T09:43:25;1.85;;;1.00;;
49548;SDS011;35450;44.518;7.466;2023-08-31T09:46:28;0.85;;;0.70;;
49548;SDS011;35450;44.518;7.466;2023-08-31T09:49:33;4.50;;;1.13;;
49548;SDS011;35450;44.518;7.466;2023-08-31T09:52:37;1.58;;;1.20;;
49548;SDS011;35450;44.518;7.466;2023-08-31T09:55:43;3.13;;;1.20;;
49548;SDS011;35450;44.518;7.466;2023-08-31T09:58:47;5.30;;;1.33;;
49548;SDS011;35450;44.518;7.466;2023-08-31T10:01:52;4.88;;;1.48;;
49548;SDS011;35450;44.518;7.466;2023-08-31T10:04:56;1.95;;;1.30;;
49548;SDS011;35450;44.518;7.466;2023-08-31T10:08:01;3.05;;;1.30;;
49548;SDS011;35450;44.518;7.466;2023-08-31T10:11:06;2.65;;;1.60;;
49548;SDS011;35450;44.518;7.466;2023-08-31T10:14:10;2.00;;;1.40;;
49548;SDS011;35450;44.518;7.466;2023-08-31T10:17:15;2.15;;;1.40;;
49548;SDS011;35450;44.518;7.466;2023-08-31T10:20:19;2.15;;;1.48;;
49548;SDS011;35450;44.518;7.466;2023-08-31T10:23:23;6.30;;;1.50;;
49548;SDS011;35450;44.518;7.466;2023-08-31T10:26:29;2.20;;;1.45;;
49548;SDS011;35450;44.518;7.466;2023-08-31T10:29:34;4.50;;;1.70;;
49548;SDS011;35450;44.518;7.466;2023-08-31T10:32:39;6.57;;;1.40;;
49548;SDS011;35450;44.518;7.466;2023-08-31T10:42:01;2.90;;;1.50;;
49548;SDS011;35450;44.518;7.466;2023-08-31T10:45:06;1.75;;;1.20;;
49548;SDS011;35450;44.518;7.466;2023-08-31T10:48:10;1.83;;;1.00;;
49548;SDS011;35450;44.518;7.466;2023-08-31T10:51:17;1.20;;;1.00;;
49548;SDS011;35450;44.518;7.466;2023-08-31T10:54:23;2.60;;;1.50;;
49548;SDS011;35450;44.518;7.466;2023-08-31T10:57:31;2.05;;;1.27;;
49548;SDS011;35450;44.518;7.466;2023-08-31T11:00:56;1.85;;;1.05;;
49548;SDS011;35450;44.518;7.466;2023-08-31T11:04:00;1.30;;;1.10;;
49548;SDS011;35450;44.518;7.466;2023-08-31T11:07:19;1.90;;;1.25;;
49548;SDS011;35450;44.518;7.466;2023-08-31T11:10:26;2.88;;;1.30;;
49548;SDS011;35450;44.518;7.466;2023-08-31T11:13:30;2.97;;;1.20;;
49548;SDS011;35450;44.518;7.466;2023-08-31T11:16:37;1.08;;;0.98;;
49548;SDS011;35450;44.518;7.466;2023-08-31T11:19:42;1.58;;;1.20;;
49548;SDS011;35450;44.518;7.466;2023-08-31T11:22:48;2.63;;;1.63;;
49548;SDS011;35450;44.518;7.466;2023-08-31T11:25:56;1.80;;;1.17;;
49548;SDS011;35450;44.518;7.466;2023-08-31T11:29:00;2.92;;;1.20;;
49548;SDS011;35450;44.518;7.466;2023-08-31T11:32:04;1.80;;;1.20;;
49548;SDS011;35450;44.518;7.466;2023-08-31T11:35:08;1.77;;;1.33;;
49548;SDS011;35450;44.518;7.466;2023-08-31T11:38:12;3.92;;;1.20;;
49548;SDS011;35450;44.518;7.466;2023-08-31T11:41:16;1.90;;;1.30;;
49548;SDS011;35450;44.518;7.466;2023-08-31T11:44:21;3.05;;;1.27;;
49548;SDS011;35450;44.518;7.466;2023-08-31T11:47:25;1.60;;;1.00;;
49548;SDS011;35450;44.518;7.466;2023-08-31T11:50:29;1.73;;;1.23;;
49548;SDS011;35450;44.518;7.466;2023-08-31T11:53:34;2.15;;;1.25;;
49548;SDS011;35450;44.518;7.466;2023-08-31T11:56:38;1.73;;;1.00;;
49548;SDS011;35450;44.518;7.466;2023-08-31T11:59:47;3.70;;;1.00;;
49548;SDS011;35450;44.518;7.466;2023-08-31T12:02:56;2.97;;;1.27;;
49548;SDS011;35450;44.518;7.466;2023-08-31T12:06:01;1.33;;;0.93;;
49548;SDS011;35450;44.518;7.466;2023-08-31T12:09:08;1.70;;;0.95;;
49548;SDS011;35450;44.518;7.466;2023-08-31T12:12:13;3.80;;;1.08;;
49548;SDS011;35450;44.518;7.466;2023-08-31T12:15:19;4.07;;;0.98;;
49548;SDS011;35450;44.518;7.466;2023-08-31T12:18:29;1.17;;;0.88;;
49548;SDS011;35450;44.518;7.466;2023-08-31T12:21:36;2.47;;;1.52;;
49548;SDS011;35450;44.518;7.466;2023-08-31T12:24:40;2.15;;;1.15;;
49548;SDS011;35450;44.518;7.466;2023-08-31T12:27:45;2.83;;;1.27;;
49548;SDS011;35450;44.518;7.466;2023-08-31T12:30:52;2.20;;;1.17;;
49548;SDS011;35450;44.518;7.466;2023-08-31T12:33:59;1.73;;;1.10;;
49548;SDS011;35450;44.518;7.466;2023-08-31T12:37:06;3.38;;;1.02;;
49548;SDS011;35450;44.518;7.466;2023-08-31T12:40:10;2.20;;;0.98;;
49548;SDS011;35450;44.518;7.466;2023-08-31T12:43:15;2.28;;;1.27;;
49548;SDS011;35450;44.518;7.466;2023-08-31T12:46:19;4.80;;;1.13;;
49548;SDS011;35450;44.518;7.466;2023-08-31T12:49:23;5.28;;;1.75;;
49548;SDS011;35450;44.518;7.466;2023-08-31T12:52:27;1.85;;;1.35;;
49548;SDS011;35450;44.518;7.466;2023-08-31T12:55:31;1.45;;;1.15;;
49548;SDS011;35450;44.518;7.466;2023-08-31T12:58:35;3.50;;;1.55;;
49548;SDS011;35450;44.518;7.466;2023-08-31T13:01:41;10.32;;;1.80;;
49548;SDS011;35450;44.518;7.466;2023-08-31T13:04:45;1.42;;;1.20;;
49548;SDS011;35450;44.518;7.466;2023-08-31T13:07:49;2.65;;;1.48;;
49548;SDS011;35450;44.518;7.466;2023-08-31T13:10:54;2.60;;;1.13;;
49548;SDS011;35450;44.518;7.466;2023-08-31T13:13:58;1.80;;;1.20;;
49548;SDS011;35450;44.518;7.466;2023-08-31T13:17:03;3.25;;;1.20;;
49548;SDS011;35450;44.518;7.466;2023-08-31T13:20:07;1.63;;;1.17;;
49548;SDS011;35450;44.518;7.466;2023-08-31T13:23:11;1.40;;;1.13;;
49548;SDS011;35450;44.518;7.466;2023-08-31T13:26:15;2.97;;;1.13;;
49548;SDS011;35450;44.518;7.466;2023-08-31T13:29:19;5.57;;;1.83;;
49548;SDS011;35450;44.518;7.466;2023-08-31T13:32:24;2.25;;;1.10;;
49548;SDS011;35450;44.518;7.466;2023-08-31T13:35:29;3.55;;;1.27;;
49548;SDS011;35450;44.518;7.466;2023-08-31T13:38:33;1.92;;;1.13;;
49548;SDS011;35450;44.518;7.466;2023-08-31T13:41:37;3.38;;;1.27;;
49548;SDS011;35450;44.518;7.466;2023-08-31T13:44:42;1.50;;;1.25;;
49548;SDS011;35450;44.518;7.466;2023-08-31T13:47:46;4.95;;;1.30;;
49548;SDS011;35450;44.518;7.466;2023-08-31T13:50:52;1.80;;;0.90;;
49548;SDS011;35450;44.518;7.466;2023-08-31T13:53:56;4.43;;;0.88;;
49548;SDS011;35450;44.518;7.466;2023-08-31T13:57:00;3.42;;;1.10;;
49548;SDS011;35450;44.518;7.466;2023-08-31T14:00:04;1.77;;;0.73;;
49548;SDS011;35450;44.518;7.466;2023-08-31T14:03:13;2.25;;;0.95;;
49548;SDS011;35450;44.518;7.466;2023-08-31T14:06:17;2.33;;;1.10;;
49548;SDS011;35450;44.518;7.466;2023-08-31T14:09:21;6.45;;;0.88;;
49548;SDS011;35450;44.518;7.466;2023-08-31T14:12:25;2.08;;;0.95;;
49548;SDS011;35450;44.518;7.466;2023-08-31T14:15:29;2.22;;;0.85;;
49548;SDS011;35450;44.518;7.466;2023-08-31T14:18:33;3.33;;;1.10;;
49548;SDS011;35450;44.518;7.466;2023-08-31T14:21:37;1.92;;;0.80;;
49548;SDS011;35450;44.518;7.466;2023-08-31T14:24:41;2.03;;;0.90;;
49548;SDS011;35450;44.518;7.466;2023-08-31T14:27:46;3.08;;;0.90;;
49548;SDS011;35450;44.518;7.466;2023-08-31T14:30:51;6.90;;;1.50;;
49548;SDS011;35450;44.518;7.466;2023-08-31T14:33:55;4.47;;;1.05;;
49548;SDS011;35450;44.518;7.466;2023-08-31T14:36:59;1.65;;;0.98;;
49548;SDS011;35450;44.518;7.466;2023-08-31T14:40:04;2.15;;;0.98;;
49548;SDS011;35450;44.518;7.466;2023-08-31T14:43:10;1.73;;;1.08;;
49548;SDS011;35450;44.518;7.466;2023-08-31T14:46:15;6.32;;;1.17;;
49548;SDS011;35450;44.518;7.466;2023-08-31T14:49:21;2.47;;;0.93;;
49548;SDS011;35450;44.518;7.466;2023-08-31T14:52:26;4.10;;;0.80;;
49548;SDS011;35450;44.518;7.466;2023-08-31T14:55:30;3.03;;;0.90;;
49548;SDS011;35450;44.518;7.466;2023-08-31T14:58:34;1.50;;;0.85;;
49548;SDS011;35450;44.518;7.466;2023-08-31T15:01:38;1.83;;;1.00;;
49548;SDS011;35450;44.518;7.466;2023-08-31T15:04:42;9.55;;;1.33;;
49548;SDS011;35450;44.518;7.466;2023-08-31T15:07:47;3.78;;;1.23;;
49548;SDS011;35450;44.518;7.466;2023-08-31T15:10:51;4.13;;;0.90;;
49548;SDS011;35450;44.518;7.466;2023-08-31T15:13:57;4.00;;;1.20;;
49548;SDS011;35450;44.518;7.466;2023-08-31T15:17:02;6.65;;;1.30;;
49548;SDS011;35450;44.518;7.466;2023-08-31T15:20:06;3.05;;;1.05;;
49548;SDS011;35450;44.518;7.466;2023-08-31T15:23:12;3.38;;;1.20;;
49548;SDS011;35450;44.518;7.466;2023-08-31T15:26:16;4.20;;;0.90;;
49548;SDS011;35450;44.518;7.466;2023-08-31T15:29:21;4.82;;;1.25;;
49548;SDS011;35450;44.518;7.466;2023-08-31T15:32:25;2.13;;;1.10;;
49548;SDS011;35450;44.518;7.466;2023-08-31T15:35:30;7.22;;;0.93;;
49548;SDS011;35450;44.518;7.466;2023-08-31T15:38:35;4.85;;;1.23;;
49548;SDS011;35450;44.518;7.466;2023-08-31T15:41:40;8.80;;;0.80;;
49548;SDS011;35450;44.518;7.466;2023-08-31T15:44:44;1.92;;;0.90;;
49548;SDS011;35450;44.518;7.466;2023-08-31T15:47:48;7.20;;;0.90;;
49548;SDS011;35450;44.518;7.466;2023-08-31T15:50:52;7.70;;;1.67;;
49548;SDS011;35450;44.518;7.466;2023-08-31T15:53:57;6.13;;;1.20;;
49548;SDS011;35450;44.518;7.466;2023-08-31T15:57:01;4.75;;;1.00;;
49548;SDS011;35450;44.518;7.466;2023-08-31T16:00:06;2.55;;;0.98;;
49548;SDS011;35450;44.518;7.466;2023-08-31T16:03:13;8.38;;;0.98;;
49548;SDS011;35450;44.518;7.466;2023-08-31T16:06:17;4.97;;;1.15;;
49548;SDS011;35450;44.518;7.466;2023-08-31T16:09:21;6.45;;;1.45;;
49548;SDS011;35450;44.518;7.466;2023-08-31T16:12:25;4.95;;;1.30;;
49548;SDS011;35450;44.518;7.466;2023-08-31T16:15:29;9.07;;;1.55;;
49548;SDS011;35450;44.518;7.466;2023-08-31T16:18:33;4.15;;;1.70;;
49548;SDS011;35450;44.518;7.466;2023-08-31T16:21:37;7.72;;;1.65;;
49548;SDS011;35450;44.518;7.466;2023-08-31T16:24:41;4.25;;;1.35;;
49548;SDS011;35450;44.518;7.466;2023-08-31T16:27:45;7.95;;;1.75;;
49548;SDS011;35450;44.518;7.466;2023-08-31T16:30:49;6.97;;;1.60;;
49548;SDS011;35450;44.518;7.466;2023-08-31T16:33:53;9.18;;;2.05;;
49548;SDS011;35450;44.518;7.466;2023-08-31T16:36:58;7.55;;;1.40;;
49548;SDS011;35450;44.518;7.466;2023-08-31T16:40:02;5.75;;;1.63;;
49548;SDS011;35450;44.518;7.466;2023-08-31T16:43:08;5.22;;;2.00;;
49548;SDS011;35450;44.518;7.466;2023-08-31T16:46:12;5.75;;;1.70;;
49548;SDS011;35450;44.518;7.466;2023-08-31T16:49:16;5.47;;;1.73;;
49548;SDS011;35450;44.518;7.466;2023-08-31T16:52:22;5.60;;;1.70;;
49548;SDS011;35450;44.518;7.466;2023-08-31T16:55:26;7.65;;;1.55;;
49548;SDS011;35450;44.518;7.466;2023-08-31T16:58:30;5.00;;;1.50;;
49548;SDS011;35450;44.518;7.466;2023-08-31T17:01:34;8.13;;;2.00;;
49548;SDS011;35450;44.518;7.466;2023-08-31T17:04:38;4.55;;;1.60;;
49548;SDS011;35450;44.518;7.466;2023-08-31T17:07:42;5.55;;;1.55;;
49548;SDS011;35450;44.518;7.466;2023-08-31T17:10:47;10.05;;;1.30;;
49548;SDS011;35450;44.518;7.466;2023-08-31T17:13:51;2.22;;;1.00;;
49548;SDS011;35450;44.518;7.466;2023-08-31T17:16:56;3.42;;;1.10;;
49548;SDS011;35450;44.518;7.466;2023-08-31T17:20:04;8.50;;;1.45;;
49548;SDS011;35450;44.518;7.466;2023-08-31T17:23:11;9.32;;;1.42;;
49548;SDS011;35450;44.518;7.466;2023-08-31T17:26:22;3.17;;;1.10;;
49548;SDS011;35450;44.518;7.466;2023-08-31T17:29:27;6.70;;;1.55;;
49548;SDS011;35450;44.518;7.466;2023-08-31T17:32:31;8.82;;;2.05;;
49548;SDS011;35450;44.518;7.466;2023-08-31T17:35:36;9.20;;;1.88;;
49548;SDS011;35450;44.518;7.466;2023-08-31T17:38:40;6.55;;;2.22;;
49548;SDS011;35450;44.518;7.466;2023-08-31T17:41:45;4.68;;;1.80;;
49548;SDS011;35450;44.518;7.466;2023-08-31T17:44:49;4.03;;;1.73;;
49548;SDS011;35450;44.518;7.466;2023-08-31T17:47:53;10.88;;;2.47;;
49548;SDS011;35450;44.518;7.466;2023-08-31T17:50:58;5.47;;;1.70;;
49548;SDS011;35450;44.518;7.466;2023-08-31T17:54:02;7.55;;;1.98;;
49548;SDS011;35450;44.518;7.466;2023-08-31T17:57:06;6.93;;;1.55;;
49548;SDS011;35450;44.518;7.466;2023-08-31T18:00:10;7.18;;;2.10;;
49548;SDS011;35450;44.518;7.466;2023-08-31T18:03:16;5.45;;;1.85;;
49548;SDS011;35450;44.518;7.466;2023-08-31T18:06:20;7.97;;;2.83;;
49548;SDS011;35450;44.518;7.466;2023-08-31T18:09:24;7.22;;;1.50;;
49548;SDS011;35450;44.518;7.466;2023-08-31T18:12:33;5.65;;;1.60;;
49548;SDS011;35450;44.518;7.466;2023-08-31T18:15:37;6.10;;;2.15;;
49548;SDS011;35450;44.518;7.466;2023-08-31T18:18:41;3.00;;;1.83;;
49548;SDS011;35450;44.518;7.466;2023-08-31T18:21:45;8.50;;;1.83;;
49548;SDS011;35450;44.518;7.466;2023-08-31T18:24:49;6.03;;;1.80;;
49548;SDS011;35450;44.518;7.466;2023-08-31T18:27:53;3.83;;;1.60;;
49548;SDS011;35450;44.518;7.466;2023-08-31T18:30:58;2.60;;;1.70;;
49548;SDS011;35450;44.518;7.466;2023-08-31T18:34:06;5.43;;;1.55;;
49548;SDS011;35450;44.518;7.466;2023-08-31T18:37:11;3.85;;;1.75;;
49548;SDS011;35450;44.518;7.466;2023-08-31T18:40:15;7.32;;;1.65;;
49548;SDS011;35450;44.518;7.466;2023-08-31T18:43:21;8.75;;;2.22;;
49548;SDS011;35450;44.518;7.466;2023-08-31T18:46:28;3.28;;;1.73;;
49548;SDS011;35450;44.518;7.466;2023-08-31T18:49:32;7.15;;;2.10;;
49548;SDS011;35450;44.518;7.466;2023-08-31T18:52:36;4.35;;;1.90;;
49548;SDS011;35450;44.518;7.466;2023-08-31T18:55:42;8.23;;;2.25;;
49548;SDS011;35450;44.518;7.466;2023-08-31T18:58:46;6.57;;;1.60;;
49548;SDS011;35450;44.518;7.466;2023-08-31T19:01:51;2.75;;;1.50;;
49548;SDS011;35450;44.518;7.466;2023-08-31T19:04:55;2.70;;;1.58;;
49548;SDS011;35450;44.518;7.466;2023-08-31T19:07:59;4.53;;;1.55;;
49548;SDS011;35450;44.518;7.466;2023-08-31T19:11:06;4.78;;;1.65;;
49548;SDS011;35450;44.518;7.466;2023-08-31T19:14:14;8.27;;;1.85;;
49548;SDS011;35450;44.518;7.466;2023-08-31T19:17:18;10.65;;;1.73;;
49548;SDS011;35450;44.518;7.466;2023-08-31T19:20:22;5.50;;;1.70;;
49548;SDS011;35450;44.518;7.466;2023-08-31T19:23:27;6.53;;;1.95;;
49548;SDS011;35450;44.518;7.466;2023-08-31T19:26:31;5.72;;;1.65;;
49548;SDS011;35450;44.518;7.466;2023-08-31T19:29:34;3.75;;;1.85;;
49548;SDS011;35450;44.518;7.466;2023-08-31T19:32:38;5.35;;;2.00;;
49548;SDS011;35450;44.518;7.466;2023-08-31T19:35:42;7.63;;;2.03;;
49548;SDS011;35450;44.518;7.466;2023-08-31T19:38:47;4.60;;;2.58;;
49548;SDS011;35450;44.518;7.466;2023-08-31T19:41:51;14.82;;;1.35;;
49548;SDS011;35450;44.518;7.466;2023-08-31T19:44:54;4.60;;;2.28;;
49548;SDS011;35450;44.518;7.466;2023-08-31T19:47:58;19.65;;;2.17;;
49548;SDS011;35450;44.518;7.466;2023-08-31T19:51:03;6.15;;;1.90;;
49548;SDS011;35450;44.518;7.466;2023-08-31T19:54:08;5.78;;;1.50;;
49548;SDS011;35450;44.518;7.466;2023-08-31T19:57:14;4.10;;;1.30;;
49548;SDS011;35450;44.518;7.466;2023-08-31T20:00:17;7.82;;;1.85;;
49548;SDS011;35450;44.518;7.466;2023-08-31T20:03:25;7.38;;;1.65;;
49548;SDS011;35450;44.518;7.466;2023-08-31T20:06:29;6.45;;;1.88;;
49548;SDS011;35450;44.518;7.466;2023-08-31T20:09:33;7.88;;;1.80;;
49548;SDS011;35450;44.518;7.466;2023-08-31T20:12:37;6.57;;;1.50;;
49548;SDS011;35450;44.518;7.466;2023-08-31T20:15:41;6.70;;;2.15;;
49548;SDS011;35450;44.518;7.466;2023-08-31T20:18:47;6.35;;;1.70;;
49548;SDS011;35450;44.518;7.466;2023-08-31T20:21:51;5.05;;;1.50;;
49548;SDS011;35450;44.518;7.466;2023-08-31T20:24:56;3.47;;;1.60;;
49548;SDS011;35450;44.518;7.466;2023-08-31T20:28:00;3.92;;;1.73;;
49548;SDS011;35450;44.518;7.466;2023-08-31T20:31:04;4.30;;;1.52;;
49548;SDS011;35450;44.518;7.466;2023-08-31T20:34:08;5.57;;;1.73;;
49548;SDS011;35450;44.518;7.466;2023-08-31T20:37:12;6.20;;;1.45;;
49548;SDS011;35450;44.518;7.466;2023-08-31T20:40:16;3.10;;;1.50;;
49548;SDS011;35450;44.518;7.466;2023-08-31T20:43:21;4.50;;;1.50;;
49548;SDS011;35450;44.518;7.466;2023-08-31T20:46:25;4.47;;;1.80;;
49548;SDS011;35450;44.518;7.466;2023-08-31T20:49:29;5.35;;;1.88;;
49548;SDS011;35450;44.518;7.466;2023-08-31T20:52:32;2.63;;;1.55;;
49548;SDS011;35450;44.518;7.466;2023-08-31T20:55:40;4.95;;;1.52;;
49548;SDS011;35450;44.518;7.466;2023-08-31T20:58:44;7.60;;;2.00;;
49548;SDS011;35450;44.518;7.466;2023-08-31T21:01:48;5.07;;;1.58;;
49548;SDS011;35450;44.518;7.466;2023-08-31T21:04:52;5.90;;;1.58;;
49548;SDS011;35450;44.518;7.466;2023-08-31T21:07:56;6.68;;;1.65;;
49548;SDS011;35450;44.518;7.466;2023-08-31T21:11:00;7.10;;;1.50;;
49548;SDS011;35450;44.518;7.466;2023-08-31T21:14:04;7.38;;;1.80;;
49548;SDS011;35450;44.518;7.466;2023-08-31T21:17:08;7.80;;;1.60;;
49548;SDS011;35450;44.518;7.466;2023-08-31T21:20:12;8.70;;;1.60;;
49548;SDS011;35450;44.518;7.466;2023-08-31T21:23:16;6.13;;;1.42;;
49548;SDS011;35450;44.518;7.466;2023-08-31T21:26:20;6.03;;;1.70;;
49548;SDS011;35450;44.518;7.466;2023-08-31T21:29:25;4.25;;;1.25;;
49548;SDS011;35450;44.518;7.466;2023-08-31T21:32:29;2.75;;;1.38;;
49548;SDS011;35450;44.518;7.466;2023-08-31T21:35:36;2.67;;;1.27;;
49548;SDS011;35450;44.518;7.466;2023-08-31T21:38:43;4.25;;;1.50;;
49548;SDS011;35450;44.518;7.466;2023-08-31T21:41:47;7.95;;;1.40;;
49548;SDS011;35450;44.518;7.466;2023-08-31T21:44:51;7.10;;;1.63;;
49548;SDS011;35450;44.518;7.466;2023-08-31T21:47:55;4.93;;;1.48;;
49548;SDS011;35450;44.518;7.466;2023-08-31T21:50:59;3.22;;;1.50;;
49548;SDS011;35450;44.518;7.466;2023-08-31T21:54:03;3.78;;;1.50;;
49548;SDS011;35450;44.518;7.466;2023-08-31T21:57:07;4.43;;;1.70;;
49548;SDS011;35450;44.518;7.466;2023-08-31T22:00:11;7.35;;;1.80;;
49548;SDS011;35450;44.518;7.466;2023-08-31T22:03:18;5.65;;;1.60;;
49548;SDS011;35450;44.518;7.466;2023-08-31T22:06:22;5.68;;;1.55;;
49548;SDS011;35450;44.518;7.466;2023-08-31T22:09:26;3.05;;;1.40;;
49548;SDS011;35450;44.518;7.466;2023-08-31T22:12:30;2.60;;;1.50;;
49548;SDS011;35450;44.518;7.466;2023-08-31T22:15:35;4.97;;;1.25;;
49548;SDS011;35450;44.518;7.466;2023-08-31T22:18:39;4.90;;;1.52;;
49548;SDS011;35450;44.518;7.466;2023-08-31T22:21:43;2.75;;;1.27;;
49548;SDS011;35450;44.518;7.466;2023-08-31T22:24:47;6.25;;;1.38;;
49548;SDS011;35450;44.518;7.466;2023-08-31T22:27:51;5.90;;;1.30;;
49548;SDS011;35450;44.518;7.466;2023-08-31T22:30:57;4.90;;;1.98;;
49548;SDS011;35450;44.518;7.466;2023-08-31T22:34:01;2.88;;;1.42;;
49548;SDS011;35450;44.518;7.466;2023-08-31T22:37:06;7.25;;;1.50;;
49548;SDS011;35450;44.518;7.466;2023-08-31T22:40:10;4.50;;;1.25;;
49548;SDS011;35450;44.518;7.466;2023-08-31T22:43:16;3.47;;;1.17;;
49548;SDS011;35450;44.518;7.466;2023-08-31T22:46:20;3.60;;;1.63;;
49548;SDS011;35450;44.518;7.466;2023-08-31T22:49:24;4.82;;;2.10;;
49548;SDS011;35450;44.518;7.466;2023-08-31T22:52:28;2.55;;;1.40;;
49548;SDS011;35450;44.518;7.466;2023-08-31T22:55:32;5.25;;;1.52;;
49548;SDS011;35450;44.518;7.466;2023-08-31T22:58:36;2.50;;;1.73;;
49548;SDS011;35450;44.518;7.466;2023-08-31T23:01:40;3.13;;;1.23;;
49548;SDS011;35450;44.518;7.466;2023-08-31T23:04:45;3.03;;;1.33;;
49548;SDS011;35450;44.518;7.466;2023-08-31T23:07:48;3.97;;;1.40;;
49548;SDS011;35450;44.518;7.466;2023-08-31T23:11:01;4.45;;;1.40;;
49548;SDS011;35450;44.518;7.466;2023-08-31T23:14:06;3.28;;;1.45;;
49548;SDS011;35450;44.518;7.466;2023-08-31T23:17:10;3.70;;;1.20;;
49548;SDS011;35450;44.518;7.466;2023-08-31T23:20:14;3.38;;;1.40;;
49548;SDS011;35450;44.518;7.466;2023-08-31T23:23:18;3.28;;;1.23;;
49548;SDS011;35450;44.518;7.466;2023-08-31T23:26:23;2.28;;;1.27;;
49548;SDS011;35450;44.518;7.466;2023-08-31T23:29:28;3.03;;;1.23;;
49548;SDS011;35450;44.518;7.466;2023-08-31T23:32:31;1.40;;;0.90;;
49548;SDS011;35450;44.518;7.466;2023-08-31T23:35:36;4.32;;;1.63;;
49548;SDS011;35450;44.518;7.466;2023-08-31T23:38:39;2.83;;;1.45;;
49548;SDS011;35450;44.518;7.466;2023-08-31T23:41:45;1.92;;;1.65;;
49548;SDS011;35450;44.518;7.466;2023-08-31T23:44:49;2.67;;;1.60;;
49548;SDS011;35450;44.518;7.466;2023-08-31T23:47:53;2.20;;;1.08;;
49548;SDS011;35450;44.518;7.466;2023-08-31T23:50:57;6.75;;;1.60;;
49548;SDS011;35450;44.518;7.466;2023-08-31T23:54:01;1.75;;;1.13;;
49548;SDS011;35450;44.518;7.466;2023-08-31T23:57:06;4.65;;;1.40;;
